Time;durP1;ratioP1;P1;durP2;ratioP2;P2;SDS_P1;SDS_P2;PMS_P1;PMS_P2;Temp;Humidity;BMP_temperature;BMP_pressure;BME280_temperature;BME280_humidity;BME280_pressure;Samples;Min_cycle;Max_cycle;Signal;HPM_P1;HPM_P2
2023/09/02 00:01:33;;;;;;;16.30;9.48;;;;;;;19.36;74.17;101330.16;5087308;27;96838;-65
2023/09/02 00:03:59;;;;;;;16.30;9.32;;;;;;;19.30;74.34;101330.53;5092173;27;98906;-65
2023/09/02 00:06:25;;;;;;;12.88;8.35;;;;;;;19.18;74.69;101331.31;5088750;27;97867;-66
2023/09/02 00:08:53;;;;;;;14.73;8.80;;;;;;;19.08;75.15;101330.16;5094288;27;96922;-65
2023/09/02 00:11:19;;;;;;;17.80;9.23;;;;;;;19.19;75.11;101330.34;5093761;27;96775;-65
2023/09/02 00:13:46;;;;;;;14.52;8.73;;;;;;;18.98;75.66;101334.34;5094897;27;99282;-65
2023/09/02 00:16:13;;;;;;;20.33;9.55;;;;;;;19.11;75.49;101336.19;5090670;27;99224;-65
2023/09/02 00:18:39;;;;;;;13.82;9.50;;;;;;;19.14;75.44;101345.00;5093045;27;97535;-65
2023/09/02 00:21:06;;;;;;;16.92;9.55;;;;;;;18.94;75.83;101332.81;5097314;27;96974;-65
2023/09/02 00:23:32;;;;;;;17.65;9.55;;;;;;;19.01;75.57;101344.91;5092485;27;99478;-66
2023/09/02 00:26:00;;;;;;;16.50;9.70;;;;;;;19.17;75.35;101342.13;5095708;27;98916;-66
2023/09/02 00:28:26;;;;;;;14.02;9.18;;;;;;;19.14;74.97;101339.63;5092867;27;98378;-65
2023/09/02 00:30:54;;;;;;;14.73;9.48;;;;;;;19.19;75.24;101337.53;5094721;27;96891;-66
2023/09/02 00:33:20;;;;;;;12.93;9.13;;;;;;;19.17;75.63;101339.44;5090808;27;99196;-66
2023/09/02 00:35:46;;;;;;;14.50;9.00;;;;;;;19.27;74.63;101341.47;5090908;27;98773;-65
2023/09/02 00:38:13;;;;;;;14.77;9.73;;;;;;;19.16;75.33;101335.94;5094393;27;96898;-65
2023/09/02 00:40:44;;;;;;;14.85;9.80;;;;;;;19.11;74.90;101336.19;5094718;27;97030;-65
2023/09/02 00:43:12;;;;;;;16.20;9.82;;;;;;;19.19;74.98;101330.34;5095869;27;99240;-64
2023/09/02 00:45:39;;;;;;;18.60;10.10;;;;;;;19.30;74.35;101333.22;5093865;27;101472;-65
2023/09/02 00:48:06;;;;;;;16.70;10.80;;;;;;;19.01;75.54;101339.53;5092073;27;96775;-66
2023/09/02 00:50:35;;;;;;;18.05;9.57;;;;;;;19.27;74.62;101345.97;5094449;27;96923;-66
2023/09/02 00:53:01;;;;;;;16.25;9.70;;;;;;;19.26;74.17;101342.41;5094752;27;98927;-65
2023/09/02 00:55:28;;;;;;;17.70;9.90;;;;;;;19.39;73.76;101340.69;5091535;27;99350;-66
2023/09/02 00:57:56;;;;;;;16.35;9.95;;;;;;;19.27;73.94;101344.16;5095068;27;97256;-65
2023/09/02 01:00:24;;;;;;;20.52;10.43;;;;;;;19.13;74.54;101344.13;5092260;27;99500;-65
2023/09/02 01:02:51;;;;;;;18.17;9.52;;;;;;;19.09;75.05;101331.91;5090723;27;99255;-66
2023/09/02 01:05:18;;;;;;;20.70;10.52;;;;;;;19.13;75.10;101338.78;5092695;27;98783;-65
2023/09/02 01:07:44;;;;;;;16.13;9.90;;;;;;;19.27;74.60;101333.44;5094002;27;97234;-64
2023/09/02 01:10:11;;;;;;;14.10;8.77;;;;;;;19.10;75.22;101347.84;5091848;27;96850;-64
2023/09/02 01:12:37;;;;;;;15.73;9.48;;;;;;;19.25;74.65;101343.38;5098576;27;99066;-65
2023/09/02 01:15:04;;;;;;;19.02;10.50;;;;;;;19.15;75.09;101344.06;5094324;27;99090;-65
2023/09/02 01:17:32;;;;;;;13.48;9.73;;;;;;;19.19;74.80;101351.78;5096179;27;99125;-65
2023/09/02 01:20:00;;;;;;;15.95;9.70;;;;;;;19.03;75.05;101345.66;5093062;27;96917;-65
2023/09/02 01:22:58;;;;;;;13.35;10.05;;;;;;;19.20;74.66;101345.47;5091593;27;99294;-65
2023/09/02 01:25:52;;;;;;;14.18;10.10;;;;;;;19.03;75.75;101343.81;5054265;27;98906;-64
2023/09/02 01:28:28;;;;;;;16.10;10.52;;;;;;;19.13;75.41;101348.63;5091339;27;96895;-65
2023/09/02 01:30:55;;;;;;;16.63;10.48;;;;;;;19.06;75.71;101359.72;5091217;27;98398;-66
2023/09/02 01:33:22;;;;;;;17.23;10.20;;;;;;;18.95;76.40;101355.97;5093519;27;99149;-65
2023/09/02 01:35:51;;;;;;;19.67;10.57;;;;;;;18.98;76.47;101351.28;5092830;27;98854;-66
2023/09/02 01:38:21;;;;;;;16.17;10.20;;;;;;;18.78;77.04;101367.69;5091970;27;97095;-65
2023/09/02 01:40:49;;;;;;;16.50;11.10;;;;;;;19.05;76.25;101362.50;5092514;27;96909;-65
2023/09/02 01:43:20;;;;;;;18.13;11.43;;;;;;;19.20;74.98;101364.25;5090143;27;97706;-65
2023/09/02 01:45:50;;;;;;;19.75;10.70;;;;;;;19.09;75.85;101358.69;5095383;27;99220;-65
2023/09/02 01:48:18;;;;;;;16.95;10.55;;;;;;;19.03;75.64;101359.06;5089705;27;97555;-66
2023/09/02 01:50:46;;;;;;;16.88;10.73;;;;;;;18.97;76.25;101364.78;5090615;27;96773;-65
2023/09/02 01:53:12;;;;;;;17.65;10.30;;;;;;;18.93;76.05;101366.78;5091908;27;99570;-66
2023/09/02 01:55:40;;;;;;;16.42;10.15;;;;;;;18.94;75.54;101367.66;5092169;27;99269;-65
2023/09/02 01:58:06;;;;;;;17.95;9.80;;;;;;;18.93;75.66;101374.81;5093142;27;99522;-65
2023/09/02 02:00:33;;;;;;;17.40;10.30;;;;;;;18.89;75.59;101392.03;5091041;27;96870;-65
2023/09/02 02:03:02;;;;;;;13.27;10.00;;;;;;;18.86;76.19;101383.31;5092677;27;98890;-64
2023/09/02 02:05:34;;;;;;;13.00;9.63;;;;;;;18.79;76.86;101387.28;5090473;27;98968;-64
2023/09/02 02:08:05;;;;;;;17.55;10.27;;;;;;;18.79;76.80;101395.31;5094153;27;96753;-64
2023/09/02 02:10:35;;;;;;;17.05;10.65;;;;;;;18.66;77.28;101393.38;5094667;27;97837;-65
2023/09/02 02:13:02;;;;;;;15.05;9.57;;;;;;;18.67;77.53;101399.59;5091266;27;99097;-65
2023/09/02 02:15:29;;;;;;;13.80;9.85;;;;;;;18.55;77.84;101398.50;5092261;27;98367;-65
2023/09/02 02:17:55;;;;;;;15.07;10.23;;;;;;;18.55;77.89;101392.25;5092386;27;97111;-65
2023/09/02 02:20:25;;;;;;;14.65;9.50;;;;;;;18.76;76.94;101403.56;5093657;27;97057;-66
2023/09/02 02:22:51;;;;;;;13.13;9.23;;;;;;;18.80;76.66;101410.44;5092630;27;100010;-65
2023/09/02 02:25:18;;;;;;;14.52;10.23;;;;;;;18.66;77.05;101409.44;5093557;27;99002;-65
2023/09/02 02:27:45;;;;;;;21.33;9.00;;;;;;;18.87;76.24;101406.44;5092726;27;96851;-64
2023/09/02 02:30:12;;;;;;;12.40;9.52;;;;;;;18.79;76.04;101403.34;5091694;27;99043;-65
2023/09/02 02:32:38;;;;;;;14.50;9.65;;;;;;;18.83;76.24;101410.28;5090717;27;98863;-66
2023/09/02 02:35:05;;;;;;;14.38;9.57;;;;;;;18.79;76.50;101411.38;5091757;27;99444;-66
2023/09/02 02:37:33;;;;;;;14.65;9.20;;;;;;;18.79;76.46;101406.03;5090259;27;98071;-66
2023/09/02 02:40:00;;;;;;;12.27;9.00;;;;;;;18.77;76.57;101403.47;5091725;27;96760;-66
2023/09/02 02:42:26;;;;;;;24.73;10.95;;;;;;;18.61;77.07;101403.50;5090256;27;99255;-66
2023/09/02 02:44:53;;;;;;;18.25;9.27;;;;;;;18.70;76.57;101408.31;5094223;27;98110;-65
2023/09/02 02:47:19;;;;;;;15.00;9.88;;;;;;;18.58;77.30;101405.47;5094834;27;97449;-66
2023/09/02 02:49:45;;;;;;;14.30;9.65;;;;;;;18.63;77.08;101411.44;5092628;27;96875;-66
2023/09/02 02:52:12;;;;;;;15.55;10.02;;;;;;;18.57;77.26;101410.00;5090116;27;99295;-65
2023/09/02 02:54:39;;;;;;;13.70;10.07;;;;;;;18.37;77.85;101414.72;5092442;27;100725;-65
2023/09/02 02:57:06;;;;;;;15.18;9.25;;;;;;;18.44;77.15;101411.63;5092130;27;97132;-65
2023/09/02 02:59:33;;;;;;;14.27;9.45;;;;;;;18.42;77.30;101421.53;5091417;27;97065;-65
2023/09/02 03:01:59;;;;;;;13.82;9.40;;;;;;;18.30;78.24;101422.25;5093753;27;97598;-65
2023/09/02 03:04:26;;;;;;;14.48;9.52;;;;;;;18.17;78.30;101422.09;5090725;27;97549;-65
2023/09/02 03:06:52;;;;;;;12.90;8.70;;;;;;;18.41;77.70;101419.81;5094131;27;96761;-65
2023/09/02 03:09:20;;;;;;;12.63;8.82;;;;;;;18.39;77.42;101419.03;5090579;27;97250;-65
2023/09/02 03:11:48;;;;;;;13.95;9.38;;;;;;;18.31;77.95;101423.97;5091548;27;98244;-65
2023/09/02 03:14:14;;;;;;;14.75;9.23;;;;;;;18.28;77.95;101427.69;5092447;27;99204;-65
2023/09/02 03:16:41;;;;;;;13.82;9.05;;;;;;;18.29;77.85;101421.38;5099662;27;97202;-65
2023/09/02 03:19:07;;;;;;;15.98;9.57;;;;;;;18.40;77.42;101434.13;5091855;27;98004;-65
2023/09/02 03:21:34;;;;;;;11.45;8.63;;;;;;;18.34;77.50;101426.47;5090442;27;98949;-65
2023/09/02 03:24:00;;;;;;;14.13;9.40;;;;;;;18.50;77.10;101432.69;5091501;27;99188;-64
2023/09/02 03:26:27;;;;;;;11.27;9.10;;;;;;;18.46;77.34;101433.78;5088949;27;98673;-64
2023/09/02 03:28:54;;;;;;;13.63;9.90;;;;;;;18.36;77.35;101437.09;5090755;27;96776;-64
2023/09/02 03:31:21;;;;;;;17.35;9.63;;;;;;;18.41;77.34;101430.53;5088555;27;98848;-65
2023/09/02 03:33:47;;;;;;;12.07;8.98;;;;;;;18.10;78.43;101435.88;5090211;27;98870;-65
2023/09/02 03:36:16;;;;;;;16.90;9.88;;;;;;;18.46;77.30;101432.91;5091889;27;96921;-65
2023/09/02 03:38:43;;;;;;;11.85;8.40;;;;;;;18.55;76.83;101433.31;5092311;27;96938;-64
2023/09/02 03:41:17;;;;;;;14.57;9.38;;;;;;;18.55;76.85;101437.75;5089932;27;98302;-65
2023/09/02 03:43:43;;;;;;;13.98;9.00;;;;;;;18.52;76.97;101438.78;5090090;27;100678;-65
2023/09/02 03:46:11;;;;;;;13.30;8.85;;;;;;;18.41;77.01;101441.22;5094645;27;96961;-64
2023/09/02 03:48:37;;;;;;;12.82;9.15;;;;;;;18.63;76.54;101443.56;5092240;27;96971;-64
2023/09/02 03:51:11;;;;;;;12.35;9.45;;;;;;;18.67;76.23;101437.06;5090682;27;101496;-65
2023/09/02 03:53:37;;;;;;;14.13;9.25;;;;;;;18.47;77.01;101446.22;5089815;27;101205;-65
2023/09/02 03:56:04;;;;;;;11.73;8.80;;;;;;;18.39;77.63;101456.50;5094878;27;96894;-65
2023/09/02 03:58:31;;;;;;;14.15;9.27;;;;;;;18.41;77.28;101445.72;5096594;27;97427;-65
2023/09/02 04:00:57;;;;;;;16.00;9.63;;;;;;;18.40;77.57;101455.53;5092524;27;97805;-65
2023/09/02 04:03:26;;;;;;;13.15;8.82;;;;;;;18.41;77.88;101451.91;5094844;27;101791;-66
2023/09/02 04:05:53;;;;;;;12.52;9.30;;;;;;;18.44;77.60;101451.75;5098339;27;96762;-65
2023/09/02 04:08:21;;;;;;;18.45;9.55;;;;;;;18.53;77.11;101445.88;5101329;27;96796;-65
2023/09/02 04:10:51;;;;;;;15.65;9.32;;;;;;;18.30;77.99;101451.69;5100115;27;96852;-65
2023/09/02 04:13:17;;;;;;;12.85;8.95;;;;;;;18.23;78.07;101447.63;5095881;27;98776;-66
2023/09/02 04:15:44;;;;;;;14.38;9.27;;;;;;;18.16;78.53;101446.22;5090161;27;97280;-65
2023/09/02 04:18:10;;;;;;;11.07;8.73;;;;;;;18.33;78.03;101459.50;5093655;27;98917;-65
2023/09/02 04:20:38;;;;;;;11.10;8.27;;;;;;;18.33;77.75;101454.16;5094436;27;98884;-65
2023/09/02 04:23:04;;;;;;;16.27;9.40;;;;;;;18.19;78.27;101451.41;5094815;27;98871;-65
2023/09/02 04:25:30;;;;;;;14.20;10.07;;;;;;;18.37;77.11;101458.41;5093936;27;96861;-66
2023/09/02 04:27:57;;;;;;;13.50;9.00;;;;;;;18.25;77.95;101456.41;5095824;27;96905;-65
2023/09/02 04:30:24;;;;;;;13.07;9.10;;;;;;;18.38;77.83;101454.75;5092856;27;99268;-65
2023/09/02 04:32:51;;;;;;;14.38;9.63;;;;;;;18.35;77.78;101462.09;5090469;27;99015;-66
2023/09/02 04:35:17;;;;;;;13.20;9.85;;;;;;;18.29;78.32;101457.97;5094271;27;96940;-66
2023/09/02 04:37:52;;;;;;;13.80;9.68;;;;;;;18.33;77.83;101454.16;5096168;27;96771;-66
2023/09/02 04:40:19;;;;;;;13.87;9.67;;;;;;;18.29;78.05;101466.88;5095607;27;99656;-66
2023/09/02 04:42:45;;;;;;;16.52;10.02;;;;;;;18.68;76.78;101463.75;5094681;27;99162;-66
2023/09/02 04:45:11;;;;;;;11.52;9.00;;;;;;;18.55;76.68;101468.09;5094362;27;96831;-66
2023/09/02 04:47:38;;;;;;;11.63;9.20;;;;;;;18.39;76.80;101471.69;5092525;27;98889;-65
2023/09/02 04:50:05;;;;;;;19.27;9.75;;;;;;;18.47;76.94;101472.97;5092578;27;98977;-65
2023/09/02 04:52:32;;;;;;;15.23;9.88;;;;;;;18.50;77.00;101477.31;5092029;27;99467;-64
2023/09/02 04:55:00;;;;;;;12.48;9.45;;;;;;;18.48;77.50;101482.75;5092764;27;96992;-64
2023/09/02 04:57:26;;;;;;;13.50;8.88;;;;;;;18.53;77.30;101480.66;5094897;27;96824;-65
2023/09/02 04:59:53;;;;;;;13.90;8.60;;;;;;;18.57;77.26;101479.59;5096081;27;99760;-65
2023/09/02 05:02:19;;;;;;;13.27;8.93;;;;;;;18.56;77.11;101483.22;5094468;27;98793;-66
2023/09/02 05:04:46;;;;;;;16.75;9.45;;;;;;;18.88;76.00;101491.19;5092556;27;98023;-66
2023/09/02 05:07:12;;;;;;;13.98;9.07;;;;;;;18.85;76.19;101494.03;5096314;27;96983;-65
2023/09/02 05:09:39;;;;;;;15.63;9.57;;;;;;;18.71;76.60;101492.16;5096064;27;99384;-65
2023/09/02 05:12:07;;;;;;;12.35;9.32;;;;;;;18.64;77.08;101494.31;5094066;27;99058;-65
2023/09/02 05:14:34;;;;;;;14.80;9.35;;;;;;;18.77;76.99;101501.66;5093368;27;98839;-67
2023/09/02 05:17:00;;;;;;;14.30;8.77;;;;;;;18.86;76.86;101501.97;5092379;27;97266;-64
2023/09/02 05:19:26;;;;;;;11.90;9.07;;;;;;;18.93;76.07;101502.50;5091726;27;99019;-65
2023/09/02 05:21:53;;;;;;;13.68;9.48;;;;;;;19.03;76.18;101503.69;5093826;27;97643;-64
2023/09/02 05:24:22;;;;;;;12.00;9.02;;;;;;;19.05;76.13;101502.63;5093846;27;96736;-64
2023/09/02 05:26:48;;;;;;;12.32;8.65;;;;;;;18.85;77.14;101516.31;5093104;27;96804;-66
2023/09/02 05:29:16;;;;;;;10.10;8.82;;;;;;;18.98;76.98;101525.38;5094925;27;99218;-66
2023/09/02 05:31:42;;;;;;;12.63;9.25;;;;;;;19.16;76.46;101515.41;5091162;27;98873;-66
2023/09/02 05:34:09;;;;;;;29.17;10.43;;;;;;;19.06;76.41;101525.78;5092883;27;97122;-65
2023/09/02 05:36:35;;;;;;;22.30;9.43;;;;;;;19.16;76.05;101517.22;5091372;27;96848;-66
2023/09/02 05:39:05;;;;;;;17.52;9.93;;;;;;;19.43;75.04;101535.19;5093342;27;98814;-65
2023/09/02 05:41:31;;;;;;;12.20;8.82;;;;;;;19.51;75.04;101532.06;5094721;27;99001;-65
2023/09/02 05:43:58;;;;;;;13.90;9.60;;;;;;;19.79;73.66;101525.91;5096258;27;96873;-65
2023/09/02 05:46:26;;;;;;;14.20;9.25;;;;;;;19.89;73.10;101527.06;5095171;27;96849;-65
2023/09/02 05:48:52;;;;;;;12.70;8.80;;;;;;;19.98;72.71;101531.00;5088087;27;99269;-66
2023/09/02 05:51:18;;;;;;;13.93;8.98;;;;;;;20.28;71.18;101531.75;5092583;27;99238;-66
2023/09/02 05:53:47;;;;;;;21.15;11.63;;;;;;;20.40;70.42;101538.19;5093323;27;96876;-66
2023/09/02 05:56:13;;;;;;;15.95;10.20;;;;;;;20.49;69.77;101537.59;5092840;27;97030;-65
2023/09/02 05:58:39;;;;;;;20.98;11.68;;;;;;;20.72;68.77;101538.81;5091342;27;99338;-65
2023/09/02 06:01:06;;;;;;;14.15;10.27;;;;;;;20.38;69.13;101540.09;5094420;27;99122;-65
2023/09/02 06:03:34;;;;;;;13.30;9.20;;;;;;;20.42;69.13;101547.00;5090441;27;97564;-65
2023/09/02 06:06:00;;;;;;;13.55;9.25;;;;;;;20.50;69.07;101556.28;5092643;27;96972;-66
2023/09/02 06:08:26;;;;;;;16.88;8.98;;;;;;;20.50;69.17;101561.66;5093389;27;99029;-65
2023/09/02 06:10:57;;;;;;;19.95;9.45;;;;;;;20.72;68.05;101553.09;5091156;27;99365;-65
2023/09/02 06:13:23;;;;;;;17.70;8.20;;;;;;;21.04;66.38;101561.72;5095080;27;97571;-64
2023/09/02 06:15:50;;;;;;;12.60;8.07;;;;;;;21.06;65.73;101563.34;5092444;27;96997;-65
2023/09/02 06:18:16;;;;;;;10.82;8.15;;;;;;;20.90;66.57;101559.94;5093082;27;99249;-65
2023/09/02 06:20:44;;;;;;;12.23;7.90;;;;;;;20.96;65.68;101559.53;5089723;27;97625;-66
2023/09/02 06:23:10;;;;;;;19.23;8.50;;;;;;;21.07;64.60;101564.19;5090867;27;98649;-66
2023/09/02 06:25:37;;;;;;;14.98;8.38;;;;;;;21.58;64.69;101561.69;5094115;27;101434;-66
2023/09/02 06:28:04;;;;;;;10.60;8.10;;;;;;;21.70;64.55;101564.41;5090516;27;99011;-65
2023/09/02 06:30:30;;;;;;;13.73;8.32;;;;;;;21.46;64.05;101566.09;5091365;27;98796;-65
2023/09/02 06:32:57;;;;;;;12.00;7.45;;;;;;;21.45;61.64;101565.22;5091171;27;96803;-65
2023/09/02 06:35:24;;;;;;;9.52;6.40;;;;;;;21.82;59.96;101570.75;5092972;27;96809;-65
2023/09/02 06:37:51;;;;;;;9.93;6.07;;;;;;;21.70;59.99;101571.59;5090704;27;102085;-65
2023/09/02 06:40:18;;;;;;;9.05;6.20;;;;;;;21.75;59.87;101572.13;5091616;27;100158;-65
2023/09/02 06:42:45;;;;;;;10.45;6.68;;;;;;;21.73;58.37;101563.31;5092353;27;96856;-64
2023/09/02 06:45:11;;;;;;;11.98;7.22;;;;;;;22.01;58.26;101573.03;5098190;27;97734;-65
2023/09/02 06:47:37;;;;;;;9.50;6.63;;;;;;;21.85;57.81;101582.16;5091357;27;99231;-65
2023/09/02 06:50:05;;;;;;;9.10;6.00;;;;;;;21.91;58.08;101580.00;5093038;27;97694;-65
2023/09/02 06:52:31;;;;;;;11.68;6.00;;;;;;;22.41;56.46;101581.84;5095354;27;97103;-65
2023/09/02 06:54:59;;;;;;;16.50;6.57;;;;;;;22.54;56.51;101591.63;5093743;27;96858;-66
2023/09/02 06:57:26;;;;;;;10.48;6.60;;;;;;;22.69;56.25;101588.78;5095106;27;99063;-66
2023/09/02 06:59:52;;;;;;;12.77;6.68;;;;;;;22.90;55.47;101592.66;5096495;27;98904;-66
2023/09/02 07:02:19;;;;;;;13.77;6.30;;;;;;;22.98;55.39;101604.56;5096594;27;98726;-65
2023/09/02 07:04:48;;;;;;;12.13;6.63;;;;;;;23.07;54.50;101594.09;5089630;27;98859;-65
2023/09/02 07:07:15;;;;;;;15.68;6.68;;;;;;;23.07;54.09;101603.03;5095468;27;98849;-66
2023/09/02 07:09:41;;;;;;;11.13;7.03;;;;;;;22.86;54.46;101605.47;5092027;27;99373;-65
2023/09/02 07:12:09;;;;;;;8.10;5.90;;;;;;;23.09;53.74;101603.78;5092379;27;97189;-65
2023/09/02 07:14:35;;;;;;;11.25;5.60;;;;;;;22.87;54.02;101611.72;5092882;27;96941;-65
2023/09/02 07:17:02;;;;;;;13.43;6.22;;;;;;;23.36;53.49;101612.50;5093734;27;99358;-64
2023/09/02 07:19:28;;;;;;;9.60;6.43;;;;;;;23.72;51.72;101616.09;5086807;27;99164;-62
2023/09/02 07:21:57;;;;;;;10.60;6.38;;;;;;;23.80;51.82;101613.69;5088256;27;97620;-65
2023/09/02 07:24:23;;;;;;;10.05;6.38;;;;;;;23.66;52.49;101616.56;5092520;27;97387;-66
2023/09/02 07:26:50;;;;;;;9.38;5.82;;;;;;;23.90;51.76;101616.50;5090272;27;99089;-66
2023/09/02 07:29:18;;;;;;;9.80;5.85;;;;;;;24.14;50.56;101620.88;5092489;27;98620;-64
2023/09/02 07:31:44;;;;;;;8.20;5.72;;;;;;;24.37;50.00;101610.09;5096602;27;98665;-66
2023/09/02 07:34:11;;;;;;;9.95;4.88;;;;;;;24.36;49.23;101609.25;5096143;27;96972;-64
2023/09/02 07:36:38;;;;;;;47.83;29.88;;;;;;;24.13;48.06;101612.88;5095763;27;98826;-65
2023/09/02 07:39:05;;;;;;;20.77;11.07;;;;;;;23.66;48.97;101620.13;5091306;27;98803;-64
2023/09/02 07:41:31;;;;;;;15.52;6.03;;;;;;;23.79;48.73;101625.44;5094578;27;98829;-65
2023/09/02 07:43:58;;;;;;;8.85;5.38;;;;;;;23.86;48.42;101624.00;5096754;27;97673;-65
2023/09/02 07:46:25;;;;;;;10.10;5.53;;;;;;;23.98;46.99;101627.56;5093036;27;100460;-65
2023/09/02 07:48:52;;;;;;;9.90;5.25;;;;;;;24.48;46.41;101624.47;5092267;27;101222;-64
2023/09/02 07:51:18;;;;;;;10.82;5.20;;;;;;;24.67;46.42;101628.41;5095434;27;96927;-65
2023/09/02 07:53:45;;;;;;;9.23;5.38;;;;;;;24.81;46.23;101637.09;5093529;27;96989;-66
2023/09/02 07:56:11;;;;;;;10.05;5.13;;;;;;;24.87;45.75;101638.47;5092768;27;98949;-66
2023/09/02 07:58:38;;;;;;;8.43;5.00;;;;;;;25.05;45.02;101639.69;5093652;27;99229;-66
2023/09/02 08:01:04;;;;;;;11.05;6.25;;;;;;;24.73;44.36;101636.88;5092890;27;96857;-66
2023/09/02 08:03:32;;;;;;;10.65;4.65;;;;;;;24.74;43.42;101643.16;5093441;27;97995;-66
2023/09/02 08:06:05;;;;;;;8.25;4.72;;;;;;;25.05;43.25;101650.50;5093758;27;97761;-67
2023/09/02 08:08:31;;;;;;;7.40;4.50;;;;;;;25.43;43.63;101647.31;5094882;27;98331;-66
2023/09/02 08:11:04;;;;;;;8.38;4.30;;;;;;;25.58;42.96;101654.19;5094327;27;96824;-66
2023/09/02 08:13:31;;;;;;;8.55;4.07;;;;;;;25.53;41.68;101661.81;5092671;27;97615;-65
2023/09/02 08:15:58;;;;;;;6.88;3.97;;;;;;;25.77;40.81;101658.91;5093000;27;98885;-65
2023/09/02 08:18:24;;;;;;;6.38;3.85;;;;;;;25.87;40.87;101661.69;5093063;27;98798;-66
2023/09/02 08:20:52;;;;;;;6.70;4.70;;;;;;;25.97;40.39;101666.19;5085526;27;97201;-65
2023/09/02 08:23:18;;;;;;;6.78;3.10;;;;;;;25.69;39.62;101661.41;5092425;27;96901;-66
2023/09/02 08:25:45;;;;;;;4.88;2.53;;;;;;;25.72;39.59;101662.03;5090722;27;99385;-65
2023/09/02 08:28:12;;;;;;;5.10;3.22;;;;;;;25.41;39.45;101665.53;5091481;27;99143;-66
2023/09/02 08:30:40;;;;;;;5.60;2.78;;;;;;;25.55;40.19;101667.94;5085949;27;97394;-65
2023/09/02 08:33:06;;;;;;;7.05;3.05;;;;;;;26.00;39.65;101670.47;5078445;27;99504;-65
2023/09/02 08:35:35;;;;;;;5.45;3.30;;;;;;;26.15;39.78;101666.44;5089205;27;97738;-66
2023/09/02 08:38:04;;;;;;;9.48;2.90;;;;;;;26.29;39.15;101668.84;5088728;27;98778;-66
2023/09/02 08:40:34;;;;;;;5.68;2.53;;;;;;;26.32;39.75;101665.88;5085611;27;96882;-67
2023/09/02 08:43:02;;;;;;;3.47;2.72;;;;;;;26.28;37.01;101666.28;5087261;27;97772;-66
2023/09/02 08:45:30;;;;;;;4.57;2.50;;;;;;;26.13;37.58;101679.25;5091135;27;99483;-64
2023/09/02 08:48:00;;;;;;;8.85;3.95;;;;;;;26.37;38.12;101670.91;5091325;27;99232;-65
2023/09/02 08:50:28;;;;;;;5.95;2.42;;;;;;;26.06;38.58;101691.59;5088046;27;100636;-66
2023/09/02 08:52:55;;;;;;;5.30;3.00;;;;;;;26.04;38.58;101688.19;5094062;27;97550;-66
2023/09/02 08:55:23;;;;;;;7.38;2.70;;;;;;;26.51;38.13;101684.97;5085069;27;98410;-66
2023/09/02 08:57:51;;;;;;;4.45;2.13;;;;;;;26.36;38.04;101689.00;5090772;27;98993;-66
2023/09/02 09:00:18;;;;;;;3.42;2.00;;;;;;;26.58;35.85;101685.28;5095314;27;96816;-66
2023/09/02 09:02:44;;;;;;;3.75;1.95;;;;;;;26.46;35.94;101687.19;5090149;27;96930;-66
2023/09/02 09:05:11;;;;;;;5.32;1.98;;;;;;;26.80;35.97;101687.78;5089745;27;96857;-66
2023/09/02 09:07:40;;;;;;;6.50;2.65;;;;;;;26.71;35.44;101687.78;5089108;27;99374;-65
2023/09/02 09:10:09;;;;;;;10.07;2.80;;;;;;;26.57;36.30;101691.69;5088250;27;96867;-65
2023/09/02 09:12:37;;;;;;;7.57;2.72;;;;;;;26.89;35.62;101691.56;5085802;27;97056;-64
2023/09/02 09:15:06;;;;;;;4.60;2.90;;;;;;;27.00;36.17;101694.19;5093793;27;99353;-66
2023/09/02 09:17:32;;;;;;;5.43;2.70;;;;;;;27.19;36.49;101685.22;5092569;27;99151;-66
2023/09/02 09:20:00;;;;;;;5.05;3.50;;;;;;;27.00;37.64;101693.31;5094507;27;96917;-64
2023/09/02 09:22:27;;;;;;;6.68;3.95;;;;;;;27.16;37.16;101683.69;5090055;27;97103;-64
2023/09/02 09:24:54;;;;;;;6.90;3.28;;;;;;;27.14;37.76;101691.09;5091209;27;99288;-65
2023/09/02 09:27:21;;;;;;;7.65;3.15;;;;;;;27.08;37.99;101691.66;5090111;27;99290;-64
2023/09/02 09:29:48;;;;;;;7.60;2.80;;;;;;;26.80;38.81;101698.63;5092919;27;96912;-65
2023/09/02 09:32:18;;;;;;;5.95;2.45;;;;;;;26.98;38.75;101701.59;5091228;27;97878;-64
2023/09/02 09:34:45;;;;;;;5.85;2.88;;;;;;;26.56;38.93;101707.09;5092663;27;99989;-65
2023/09/02 09:37:14;;;;;;;6.53;2.70;;;;;;;26.49;39.94;101711.34;5089185;27;97558;-64
2023/09/02 09:39:42;;;;;;;6.30;2.30;;;;;;;26.61;39.92;101705.81;5088659;27;97397;-65
2023/09/02 09:42:09;;;;;;;9.60;3.22;;;;;;;26.60;39.73;101702.25;5091489;27;96857;-64
2023/09/02 09:44:35;;;;;;;7.03;2.60;;;;;;;26.31;39.99;101707.53;5088576;27;99752;-65
2023/09/02 09:47:09;;;;;;;8.02;2.65;;;;;;;26.61;39.89;101708.53;5089951;27;100255;-65
2023/09/02 09:49:35;;;;;;;4.00;2.30;;;;;;;26.85;39.35;101701.78;5090198;27;97306;-64
2023/09/02 09:52:10;;;;;;;5.32;2.40;;;;;;;26.72;39.06;101706.59;5092281;27;96920;-63
2023/09/02 09:54:38;;;;;;;4.45;2.30;;;;;;;26.56;39.15;101696.25;5091918;27;99425;-64
2023/09/02 09:57:06;;;;;;;5.05;2.53;;;;;;;26.43;39.73;101706.44;5093956;27;98958;-65
2023/09/02 09:59:33;;;;;;;8.43;2.85;;;;;;;26.54;39.86;101700.09;5093079;27;99461;-63
2023/09/02 10:02:00;;;;;;;7.10;3.08;;;;;;;26.72;40.05;101711.16;5090718;27;97005;-66
2023/09/02 10:04:28;;;;;;;5.85;2.65;;;;;;;26.80;39.16;101698.63;5091289;27;99238;-64
2023/09/02 10:06:58;;;;;;;5.05;2.72;;;;;;;26.85;39.21;101700.94;5094069;27;101190;-66
2023/09/02 10:09:25;;;;;;;9.00;4.70;;;;;;;26.84;39.40;101704.66;5092092;27;99342;-64
2023/09/02 10:11:51;;;;;;;9.68;4.40;;;;;;;26.57;39.64;101703.41;5092740;27;96905;-66
2023/09/02 10:14:18;;;;;;;6.85;3.15;;;;;;;25.95;40.68;101706.06;5087165;27;99222;-66
2023/09/02 10:16:46;;;;;;;6.88;2.70;;;;;;;25.84;41.57;101705.28;5091040;27;102134;-65
2023/09/02 10:19:16;;;;;;;6.63;2.70;;;;;;;26.39;41.07;101699.56;5087670;27;96851;-65
2023/09/02 10:21:44;;;;;;;6.22;2.15;;;;;;;26.36;40.51;101705.25;5089787;27;97508;-64
2023/09/02 10:24:14;;;;;;;5.93;2.65;;;;;;;26.33;40.64;101705.50;5088870;27;98936;-65
2023/09/02 10:26:45;;;;;;;4.50;2.28;;;;;;;26.01;41.55;101715.53;5092224;27;99025;-64
2023/09/02 10:29:14;;;;;;;6.15;2.70;;;;;;;26.13;41.04;101709.91;5089868;27;96965;-64
2023/09/02 10:31:46;;;;;;;6.40;2.30;;;;;;;26.28;40.89;101707.78;5087442;27;97239;-64
2023/09/02 10:34:16;;;;;;;4.10;2.22;;;;;;;26.46;41.06;101705.31;5091188;27;98760;-64
2023/09/02 10:36:53;;;;;;;4.97;1.90;;;;;;;26.46;40.90;101711.59;5088315;27;98123;-65
2023/09/02 10:39:28;;;;;;;5.22;2.00;;;;;;;26.74;40.28;101709.16;5089819;27;97269;-64
2023/09/02 10:41:56;;;;;;;18.60;10.57;;;;;;;26.26;40.44;101704.31;5094974;27;97347;-64
2023/09/02 10:44:24;;;;;;;4.35;3.03;;;;;;;26.17;40.89;101716.81;5087930;27;103323;-64
2023/09/02 10:46:51;;;;;;;5.57;2.72;;;;;;;25.94;40.83;101707.06;5091894;27;98879;-65
2023/09/02 10:49:19;;;;;;;6.50;2.40;;;;;;;25.91;41.15;101712.75;5092225;27;97153;-65
2023/09/02 10:51:47;;;;;;;6.25;2.20;;;;;;;25.90;41.20;101707.47;5091634;27;97172;-64
2023/09/02 10:54:14;;;;;;;5.78;2.17;;;;;;;25.82;42.20;101720.78;5088344;27;99279;-64
2023/09/02 10:56:40;;;;;;;4.63;2.08;;;;;;;25.56;41.92;101715.66;5093368;27;98648;-65
2023/09/02 10:59:08;;;;;;;5.22;2.15;;;;;;;25.71;42.03;101717.13;5092871;27;97057;-64
2023/09/02 11:01:45;;;;;;;4.78;2.10;;;;;;;25.66;42.54;101705.84;5091513;27;97832;-65
2023/09/02 11:04:12;;;;;;;4.38;2.20;;;;;;;25.71;43.04;101711.72;5088884;27;99267;-64
2023/09/02 11:07:24;;;;;;;5.05;2.15;;;;;;;25.89;42.26;101714.72;5093513;27;101548;-65
2023/09/02 11:09:51;;;;;;;5.25;1.80;;;;;;;26.26;41.01;101717.88;5089358;27;96762;-64
2023/09/02 11:12:17;;;;;;;4.93;1.98;;;;;;;26.45;40.75;101717.16;5088211;27;97271;-64
2023/09/02 11:15:13;;;;;;;5.20;2.03;;;;;;;26.49;40.89;101714.03;5092946;27;98523;-63
2023/09/02 11:17:41;;;;;;;4.50;2.00;;;;;;;26.59;40.59;101722.22;5088925;27;101546;-65
2023/09/02 11:20:09;;;;;;;6.32;1.77;;;;;;;26.61;41.23;101720.22;5091681;27;97056;-65
2023/09/02 11:22:48;;;;;;;3.97;2.70;;;;;;;26.65;40.12;101718.97;5087822;27;96887;-64